Date,TemperatureHighF,TemperatureAvgF,TemperatureLowF,DewpointHighF,DewpointAvgF,DewpointLowF,HumidityHigh,HumidityAvg,HumidityLow,PressureMaxIn,PressureMinIn,WindSpeedMaxMPH,WindSpeedAvgMPH,GustSpeedMaxMPH,PrecipitationSumIn
2013-2-1,68,62,57,57,53,49,89,73,55,30.34,30.19,13,4,15,0.00
2013-2-2,71,64,60,62,59,56,93,83,68,30.22,30.14,12,5,14,0.00
2013-2-3,67,63,58,61,59,57,95,89,73,30.28,30.01,14,6,15,0.01
2013-2-4,72,66,63,65,62,59,93,88,79,30.00,29.78,15,8,20,0.00
2013-2-5,72,66,62,67,64,61,96,93,83,29.94,29.84,13,6,16,0.01
2013-2-6,69,66,63,68,64,61,97,95,91,29.98,29.79,23,9,31,0.69
2013-2-7,72,66,64,68,64,62,96,93,85,29.97,29.85,8,4,11,0.00
2013-2-8,68,33,58,62,-19,-100,95,39,54,30.16,29.97,23,-468,27,0.00
2013-2-9,70,25,65,67,-40,-100,95,33,87,30.05,29.78,24,-633,24,0.00
2013-2-10,76,33,64,69,-24,-100,96,38,71,29.89,29.73,22,-531,25,0.00
2013-2-11,63,26,61,60,-34,-100,95,37,83,29.95,29.85,24,-583,30,0.00
2013-2-12,68,30,60,61,-25,-100,97,41,73,29.95,29.79,14,-517,19,0.00
2013-2-13,59,30,53,46,-23,-100,73,34,52,30.15,29.95,19,-458,23,0.00
2013-2-14,63,32,53,50,-24,-100,71,31,52,30.14,30.03,10,-464,14,0.00
2013-2-15,67,33,59,56,-21,-100,82,35,54,30.28,30.04,21,-479,25,0.00
2013-2-16,60,30,49,39,-31,-100,56,22,28,30.46,30.26,13,-458,21,0.00
2013-2-17,67,30,58,55,-28,-100,73,31,61,30.26,29.98,18,-525,24,0.00
2013-2-18,71,24,66,64,-43,-100,88,29,79,29.99,29.84,21,-644,28,0.00
2013-2-19,66,31,61,57,-24,-100,79,35,63,30.18,29.97,25,-498,28,0.00
2013-2-20,70,20,65,66,-51,-100,93,27,86,29.99,29.66,14,-698,21,0.00
2013-2-21,78,48,66,69,11,-100,94,53,55,29.79,29.58,21,-316,31,0.00
2013-2-22,68,65,61,60,54,48,83,67,49,29.91,29.77,25,13,30,0.00
2013-2-23,69,60,55,56,50,45,87,72,53,30.00,29.86,18,8,25,0.00
2013-2-24,68,63,58,66,61,54,96,91,83,29.89,29.59,13,5,16,0.00
2013-2-25,71,66,57,67,42,17,97,53,13,29.87,29.51,36,16,47,0.01
2013-2-26,65,57,47,53,37,28,77,49,27,30.00,29.85,20,8,29,0.00
2013-2-27,74,63,54,59,49,34,92,63,25,30.16,29.86,19,7,24,0.00
2013-2-28,59,55,51,40,33,27,60,44,30,30.29,30.16,21,10,26,0.00